createdAt,value
2023-01-07T00:01:40.324Z,48.80
2023-01-07T00:04:10.564Z,48.63
2023-01-07T00:06:40.797Z,54.33
2023-01-07T00:09:12.423Z,52.25
2023-01-07T00:11:41.188Z,54.00
2023-01-07T00:14:10.648Z,54.60
2023-01-07T00:16:39.060Z,48.58
2023-01-07T00:19:08.574Z,49.47
2023-01-07T00:21:36.041Z,52.65
2023-01-07T00:24:05.652Z,49.55
2023-01-07T00:26:35.584Z,49.70
2023-01-07T00:29:03.559Z,50.95
2023-01-07T00:31:34.241Z,49.30
2023-01-07T00:34:02.388Z,43.55
2023-01-07T00:36:35.831Z,51.40
2023-01-07T00:39:06.345Z,52.42
2023-01-07T00:41:34.091Z,56.70
2023-01-07T00:44:01.627Z,46.47
2023-01-07T00:46:29.813Z,52.63
2023-01-07T00:48:57.385Z,45.72
2023-01-07T00:51:25.032Z,44.15
2023-01-07T00:53:52.430Z,40.63
2023-01-07T00:56:20.044Z,40.22
2023-01-07T00:58:47.398Z,42.38
2023-01-07T01:01:16.209Z,43.13
2023-01-07T01:03:43.530Z,41.28
2023-01-07T01:06:15.048Z,35.13
2023-01-07T01:08:44.218Z,44.20
2023-01-07T01:11:14.088Z,38.80
2023-01-07T01:13:42.646Z,41.10
2023-01-07T01:16:16.496Z,42.22
2023-01-07T01:18:44.713Z,36.17
2023-01-07T01:21:14.843Z,37.00
2023-01-07T01:23:43.159Z,41.33
2023-01-07T01:26:15.798Z,42.30
2023-01-07T01:31:12.798Z,34.13
2023-01-07T01:33:56.219Z,38.08
2023-01-07T01:36:25.014Z,40.60
2023-01-07T01:38:54.896Z,34.28
2023-01-07T01:41:22.411Z,33.20
2023-01-07T01:43:52.902Z,32.97
2023-01-07T01:46:39.891Z,35.15
2023-01-07T01:49:25.963Z,36.25
2023-01-07T01:52:03.077Z,35.20
2023-01-07T01:54:31.241Z,36.17
2023-01-07T01:57:01.591Z,36.38
2023-01-07T01:59:31.970Z,32.60
2023-01-07T02:02:03.708Z,38.38
2023-01-07T02:04:31.671Z,35.30
2023-01-07T02:07:07.286Z,40.15
2023-01-07T02:09:37.275Z,36.95
2023-01-07T02:12:09.035Z,36.28
2023-01-07T02:14:39.208Z,33.65
2023-01-07T02:17:31.943Z,35.75
2023-01-07T02:20:07.877Z,32.88
2023-01-07T02:23:04.112Z,35.38
2023-01-07T02:25:37.407Z,31.45
2023-01-07T02:28:29.545Z,31.80
2023-01-07T02:31:22.717Z,26.95
2023-01-07T02:33:54.914Z,26.58
2023-01-07T02:36:36.409Z,26.67
2023-01-07T02:39:17.968Z,24.17
2023-01-07T02:41:51.195Z,29.05
2023-01-07T02:44:45.380Z,32.95
2023-01-07T02:47:20.191Z,26.40
2023-01-07T02:49:49.182Z,29.55
2023-01-07T02:52:31.995Z,30.90
2023-01-07T02:55:05.155Z,27.33
2023-01-07T02:58:09.822Z,24.38
2023-01-07T03:01:11.137Z,23.52
2023-01-07T03:04:14.251Z,24.08
2023-01-07T03:07:02.036Z,21.95
2023-01-07T03:10:03.388Z,20.80
2023-01-07T03:12:46.071Z,21.27
2023-01-07T03:15:28.853Z,24.13
2023-01-07T03:18:15.464Z,21.15
2023-01-07T03:20:44.607Z,24.95
2023-01-07T03:23:15.362Z,22.55
2023-01-07T03:25:46.507Z,23.58
2023-01-07T03:28:17.909Z,23.15
2023-01-07T03:30:48.005Z,20.27
2023-01-07T03:33:26.529Z,20.63
2023-01-07T03:35:56.300Z,23.10
2023-01-07T03:38:26.282Z,24.92
2023-01-07T03:40:54.655Z,27.90
2023-01-07T03:43:23.484Z,22.58
2023-01-07T03:45:52.382Z,34.05
2023-01-07T03:48:20.042Z,31.92
2023-01-07T03:50:48.788Z,26.20
2023-01-07T03:53:16.177Z,30.27
2023-01-07T03:55:46.373Z,28.58
2023-01-07T03:58:14.506Z,31.42
2023-01-07T04:00:41.768Z,27.15
2023-01-07T04:03:15.449Z,37.75
2023-01-07T04:05:46.066Z,35.03
2023-01-07T04:08:14.287Z,34.17
2023-01-07T04:10:42.403Z,38.00
2023-01-07T04:13:10.127Z,38.92
2023-01-07T04:15:38.141Z,33.83
2023-01-07T04:18:05.803Z,38.72
2023-01-07T04:20:33.286Z,34.33
2023-01-07T04:23:00.714Z,33.60
2023-01-07T04:25:28.639Z,37.95
2023-01-07T04:27:56.435Z,33.90
2023-01-07T04:30:24.249Z,34.03
2023-01-07T04:32:52.125Z,38.00
2023-01-07T04:35:19.337Z,36.25
2023-01-07T04:37:46.794Z,41.08
2023-01-07T04:40:14.026Z,38.97
2023-01-07T04:42:41.694Z,50.08
2023-01-07T04:45:10.421Z,35.05
2023-01-07T04:47:38.251Z,38.13
2023-01-07T04:50:06.844Z,38.92
2023-01-07T04:52:36.528Z,35.88
2023-01-07T04:55:05.169Z,47.28
2023-01-07T04:57:32.731Z,39.83
2023-01-07T05:00:00.146Z,34.17
2023-01-07T05:02:27.669Z,38.88
2023-01-07T05:04:54.886Z,39.22
2023-01-07T05:07:22.737Z,39.30
2023-01-07T05:09:49.930Z,37.25
2023-01-07T05:12:18.166Z,41.45
2023-01-07T05:14:45.432Z,39.15
2023-01-07T05:17:12.919Z,39.50
2023-01-07T05:19:40.606Z,42.00
2023-01-07T05:22:10.935Z,44.17
2023-01-07T05:24:40.684Z,40.70
2023-01-07T05:27:08.395Z,40.30
2023-01-07T05:29:37.216Z,42.55
2023-01-07T05:32:04.978Z,41.45
2023-01-07T05:34:32.929Z,41.72
2023-01-07T05:37:00.318Z,44.80
2023-01-07T05:39:27.761Z,41.20
2023-01-07T05:41:55.154Z,44.30
2023-01-07T05:44:24.481Z,41.80
2023-01-07T05:46:52.149Z,40.70
2023-01-07T05:49:19.390Z,38.90
2023-01-07T05:51:46.855Z,40.30
2023-01-07T05:54:14.059Z,44.50
2023-01-07T05:56:41.553Z,51.20
2023-01-07T05:59:08.783Z,56.65
2023-01-07T06:01:36.300Z,48.60
2023-01-07T06:04:03.484Z,50.55
2023-01-07T06:06:31.064Z,49.60
2023-01-07T06:08:58.166Z,56.38
2023-01-07T06:11:25.553Z,56.20
2023-01-07T06:13:52.664Z,90.25
2023-01-07T06:16:20.252Z,99.70
2023-01-07T06:18:47.434Z,91.03
2023-01-07T06:21:16.244Z,100.25
2023-01-07T06:23:43.629Z,96.43
2023-01-07T06:26:11.092Z,112.47
2023-01-07T06:28:38.290Z,123.10
2023-01-07T06:31:09.339Z,181.23
2023-01-07T06:33:37.959Z,190.68
2023-01-07T06:36:05.759Z,167.07
2023-01-07T06:38:32.991Z,167.57
2023-01-07T06:41:01.819Z,201.85
2023-01-07T06:43:29.447Z,175.40
2023-01-07T06:45:57.214Z,122.63
2023-01-07T06:48:24.674Z,141.77
2023-01-07T06:50:52.211Z,118.82
2023-01-07T06:53:19.386Z,165.60
2023-01-07T06:55:51.246Z,106.15
2023-01-07T06:58:18.808Z,107.28
2023-01-07T07:00:46.283Z,74.80
2023-01-07T07:03:13.490Z,89.10
2023-01-07T07:05:41.154Z,99.82
2023-01-07T07:08:08.625Z,94.70
2023-01-07T07:10:36.579Z,99.22
2023-01-07T07:13:03.779Z,130.65
2023-01-07T07:15:31.323Z,123.57
2023-01-07T07:17:58.540Z,112.78
2023-01-07T07:20:26.037Z,105.30
2023-01-07T07:22:53.329Z,126.95
2023-01-07T07:25:20.906Z,89.32
2023-01-07T07:27:48.188Z,109.70
2023-01-07T07:30:16.173Z,87.25
2023-01-07T07:32:43.630Z,109.68
2023-01-07T07:35:12.082Z,136.85
2023-01-07T07:37:40.292Z,119.95
2023-01-07T07:40:09.226Z,113.90
2023-01-07T07:43:11.271Z,112.18
2023-01-07T07:45:26.032Z,87.00
2023-01-07T07:47:53.302Z,117.82
2023-01-07T07:50:21.015Z,107.60
2023-01-07T07:52:48.424Z,90.90
2023-01-07T07:55:20.772Z,96.00
2023-01-07T07:57:55.177Z,103.90
2023-01-07T08:00:23.310Z,106.65
2023-01-07T08:02:50.627Z,101.40
2023-01-07T08:05:18.355Z,90.68
2023-01-07T08:07:45.568Z,91.32
2023-01-07T08:10:13.123Z,92.93
2023-01-07T08:12:40.427Z,66.15
2023-01-07T08:15:08.874Z,72.22
2023-01-07T08:17:36.543Z,68.78
2023-01-07T08:20:05.639Z,66.68
2023-01-07T08:22:33.655Z,75.30
2023-01-07T08:25:01.547Z,113.43
2023-01-07T08:27:29.604Z,125.97
2023-01-07T08:29:57.342Z,98.28
2023-01-07T08:32:24.754Z,82.53
2023-01-07T08:34:52.326Z,92.20
2023-01-07T08:37:19.602Z,76.35
2023-01-07T08:39:47.407Z,58.63
2023-01-07T08:42:14.588Z,81.63
2023-01-07T08:44:42.193Z,72.50
2023-01-07T08:47:09.361Z,71.28
2023-01-07T08:49:36.970Z,66.80
2023-01-07T08:52:04.567Z,60.10
2023-01-07T08:54:32.267Z,60.67
2023-01-07T08:56:59.635Z,62.22
2023-01-07T08:59:27.115Z,117.07
2023-01-07T09:01:54.423Z,288.27
2023-01-07T09:04:22.012Z,274.92
2023-01-07T09:06:49.650Z,246.68
2023-01-07T09:09:17.751Z,298.80
2023-01-07T09:11:44.980Z,114.90
2023-01-07T09:14:12.380Z,50.85
2023-01-07T09:16:39.662Z,116.60
2023-01-07T09:19:07.289Z,337.73
2023-01-07T09:21:34.588Z,228.15
2023-01-07T09:24:02.138Z,78.80
2023-01-07T09:26:29.636Z,89.32
2023-01-07T09:28:57.299Z,44.40
2023-01-07T09:31:24.687Z,54.85
2023-01-07T09:33:52.200Z,49.78
2023-01-07T09:36:19.498Z,46.58
2023-01-07T09:38:47.068Z,32.42
2023-01-07T09:41:31.530Z,32.33
2023-01-07T09:44:29.110Z,50.47
2023-01-07T09:46:58.558Z,129.30
2023-01-07T09:49:30.036Z,97.70
2023-01-07T09:52:10.401Z,61.80
2023-01-07T09:54:39.642Z,48.35
2023-01-07T09:57:09.948Z,179.27
2023-01-07T09:59:37.384Z,261.17
2023-01-07T10:02:22.962Z,213.93
2023-01-07T10:05:01.781Z,488.17
2023-01-07T10:07:33.026Z,443.85
2023-01-07T10:10:34.341Z,292.90
2023-01-07T10:13:42.813Z,37.83
2023-01-07T10:16:38.899Z,39.97
2023-01-07T10:19:37.838Z,32.47
2023-01-07T10:22:32.280Z,27.98
2023-01-07T10:25:15.565Z,43.28
2023-01-07T10:27:46.334Z,38.78
2023-01-07T10:30:19.649Z,36.55
2023-01-07T10:32:50.162Z,27.42
2023-01-07T10:35:21.296Z,26.40
2023-01-07T10:37:48.873Z,31.77
2023-01-07T10:40:21.630Z,28.52
2023-01-07T10:42:58.557Z,27.88
2023-01-07T10:45:44.806Z,28.83
2023-01-07T10:48:27.423Z,21.63
2023-01-07T10:51:08.633Z,21.80
2023-01-07T10:53:44.160Z,20.17
2023-01-07T10:56:30.345Z,27.25
2023-01-07T10:58:58.301Z,22.00
2023-01-07T11:01:34.670Z,21.55
2023-01-07T11:04:03.145Z,22.65
2023-01-07T11:06:59.073Z,21.23
2023-01-07T11:09:33.749Z,19.30
2023-01-07T11:12:36.765Z,23.17
2023-01-07T11:15:14.012Z,24.45
2023-01-07T11:17:56.202Z,29.08
2023-01-07T11:20:46.536Z,22.40
2023-01-07T11:23:42.809Z,21.38
2023-01-07T11:26:16.536Z,23.55
2023-01-07T11:28:51.619Z,23.42
2023-01-07T11:31:19.943Z,27.08
2023-01-07T11:34:02.337Z,30.67
2023-01-07T11:36:42.172Z,26.30
2023-01-07T11:39:11.758Z,28.73
2023-01-07T11:41:52.789Z,28.30
2023-01-07T11:44:20.149Z,48.67
2023-01-07T11:46:47.912Z,26.60
2023-01-07T11:49:30.494Z,31.13
2023-01-07T11:51:59.193Z,33.67
2023-01-07T11:54:29.326Z,31.90
2023-01-07T11:57:19.503Z,33.20
2023-01-07T11:59:46.751Z,40.05
2023-01-07T12:02:26.575Z,29.23
2023-01-07T12:05:32.089Z,37.22
2023-01-07T12:07:59.885Z,29.30
2023-01-07T12:10:32.517Z,33.05
2023-01-07T12:13:02.960Z,33.42
2023-01-07T12:15:47.801Z,33.05
2023-01-07T12:18:36.525Z,30.55
2023-01-07T12:21:32.414Z,31.00
2023-01-07T12:24:08.764Z,30.67
2023-01-07T12:27:03.586Z,32.65
2023-01-07T12:29:44.268Z,32.00
2023-01-07T12:32:16.072Z,29.20
2023-01-07T12:34:58.856Z,32.35
2023-01-07T12:37:53.851Z,28.90
2023-01-07T12:40:31.334Z,33.72
2023-01-07T12:43:30.218Z,25.90
2023-01-07T12:46:04.305Z,33.22
2023-01-07T12:49:02.158Z,26.48
2023-01-07T12:52:05.660Z,27.42
2023-01-07T12:54:46.747Z,34.38
2023-01-07T12:57:22.011Z,32.13
2023-01-07T13:00:16.983Z,32.33
2023-01-07T13:03:03.218Z,28.40
2023-01-07T13:06:09.897Z,27.92
2023-01-07T13:08:46.861Z,27.67
2023-01-07T13:11:43.953Z,30.77
2023-01-07T13:14:25.953Z,40.58
2023-01-07T13:17:13.851Z,50.03
2023-01-07T13:19:41.592Z,33.72
2023-01-07T13:22:19.963Z,54.15
2023-01-07T13:24:56.001Z,77.40
2023-01-07T13:28:01.194Z,41.25
2023-01-07T13:30:57.065Z,42.92
2023-01-07T13:33:33.576Z,43.15
2023-01-07T13:36:22.213Z,32.60
2023-01-07T13:39:33.852Z,36.90
2023-01-07T13:42:07.961Z,32.33
2023-01-07T13:44:58.400Z,38.00
2023-01-07T13:47:33.783Z,34.33
2023-01-07T13:50:02.439Z,39.03
2023-01-07T13:52:34.205Z,35.10
2023-01-07T13:55:33.448Z,39.05
2023-01-07T13:58:04.031Z,29.52
2023-01-07T14:01:08.323Z,32.08
2023-01-07T14:06:19.912Z,33.88
2023-01-07T14:08:58.556Z,30.83
2023-01-07T14:11:35.284Z,32.97
2023-01-07T14:14:26.661Z,33.03
2023-01-07T14:17:19.123Z,31.65
2023-01-07T14:22:53.086Z,37.92
2023-01-07T14:25:48.772Z,35.53
2023-01-07T14:28:23.194Z,34.05
2023-01-07T14:30:53.146Z,37.42
2023-01-07T14:33:27.919Z,32.03
2023-01-07T14:36:01.614Z,44.72
2023-01-07T14:38:31.682Z,35.00
2023-01-07T14:41:13.605Z,34.15
2023-01-07T14:43:41.044Z,33.17
2023-01-07T14:46:30.009Z,35.10
2023-01-07T14:49:02.965Z,34.67
2023-01-07T14:51:33.309Z,33.67
2023-01-07T14:54:00.521Z,35.15
2023-01-07T14:56:51.752Z,39.65
2023-01-07T14:59:24.265Z,39.17
2023-01-07T15:02:05.416Z,42.08
2023-01-07T15:05:03.339Z,41.15
2023-01-07T15:07:36.144Z,37.05
2023-01-07T15:10:45.822Z,40.28
2023-01-07T15:13:38.258Z,37.00
2023-01-07T15:16:11.672Z,39.55
2023-01-07T15:18:50.989Z,37.22
2023-01-07T15:22:06.632Z,36.60
2023-01-07T15:24:58.303Z,40.00
2023-01-07T15:27:31.988Z,40.95
2023-01-07T15:30:14.407Z,38.53
2023-01-07T15:33:18.735Z,38.22
2023-01-07T15:35:46.659Z,40.58
2023-01-07T15:38:38.305Z,41.05
2023-01-07T15:41:06.190Z,38.70
2023-01-07T15:43:44.490Z,42.17
2023-01-07T15:46:13.973Z,36.90
2023-01-07T15:48:41.570Z,45.38
2023-01-07T15:51:17.095Z,43.97
2023-01-07T15:53:53.251Z,38.10
2023-01-07T15:56:22.338Z,39.92
2023-01-07T15:58:49.740Z,46.78
2023-01-07T16:01:27.555Z,44.42
2023-01-07T16:03:56.583Z,44.28
2023-01-07T16:06:34.120Z,43.75
2023-01-07T16:09:21.273Z,48.50
2023-01-07T16:11:49.059Z,45.83
2023-01-07T16:14:18.827Z,44.92
2023-01-07T16:16:46.836Z,48.53
2023-01-07T16:19:19.396Z,48.13
2023-01-07T16:21:54.454Z,47.78
2023-01-07T16:24:22.090Z,51.35
2023-01-07T16:26:59.822Z,46.80
2023-01-07T16:29:35.948Z,49.63
2023-01-07T16:32:06.991Z,49.08
2023-01-07T16:34:34.261Z,49.15
2023-01-07T16:37:04.746Z,51.22
2023-01-07T16:39:35.644Z,54.05
2023-01-07T16:42:32.699Z,59.42
2023-01-07T16:45:01.797Z,58.20
2023-01-07T16:47:33.799Z,50.03
2023-01-07T16:50:17.541Z,60.35
2023-01-07T16:52:55.492Z,57.65
2023-01-07T16:55:47.188Z,56.88
2023-01-07T16:58:41.608Z,60.67
2023-01-07T17:01:10.183Z,57.28
2023-01-07T17:03:48.099Z,55.08
2023-01-07T17:06:16.159Z,58.47
2023-01-07T17:08:50.222Z,57.10
2023-01-07T17:11:36.879Z,58.17
2023-01-07T17:14:04.811Z,54.10
2023-01-07T17:16:33.720Z,66.00
2023-01-07T17:19:26.774Z,65.10
2023-01-07T17:24:27.680Z,59.15
2023-01-07T17:27:00.726Z,67.75
2023-01-07T17:29:35.626Z,62.60
2023-01-07T17:32:06.213Z,63.17
2023-01-07T17:34:34.063Z,67.65
2023-01-07T17:37:01.337Z,75.95
2023-01-07T17:39:28.839Z,67.35
2023-01-07T17:42:14.596Z,63.15
2023-01-07T17:44:42.049Z,58.05
2023-01-07T17:47:11.293Z,61.88
2023-01-07T17:49:38.716Z,68.43
2023-01-07T17:52:06.004Z,59.35
2023-01-07T17:54:33.394Z,66.53
2023-01-07T17:57:00.517Z,59.50
2023-01-07T17:59:28.973Z,66.38
2023-01-07T18:01:59.065Z,66.97
2023-01-07T18:04:26.701Z,64.05
2023-01-07T18:06:53.875Z,67.50
2023-01-07T18:09:21.349Z,67.88
2023-01-07T18:12:07.112Z,74.82
2023-01-07T18:14:34.803Z,86.10
2023-01-07T18:17:02.162Z,77.20
2023-01-07T18:19:29.668Z,71.65
2023-01-07T18:21:56.807Z,70.25
2023-01-07T18:24:24.289Z,77.30
2023-01-07T18:26:51.507Z,78.43
2023-01-07T18:29:19.111Z,82.88
2023-01-07T18:31:46.477Z,80.72
2023-01-07T18:34:15.267Z,83.95
2023-01-07T18:36:42.836Z,80.55
2023-01-07T18:39:17.444Z,79.43
2023-01-07T18:41:48.733Z,77.03
2023-01-07T18:44:18.356Z,79.72
2023-01-07T18:46:45.511Z,80.18
2023-01-07T18:49:13.548Z,86.82
2023-01-07T18:51:40.816Z,87.75
2023-01-07T18:54:08.349Z,94.40
2023-01-07T18:56:35.452Z,90.10
2023-01-07T18:59:03.106Z,93.38
2023-01-07T19:01:30.383Z,86.38
2023-01-07T19:03:58.014Z,88.65
2023-01-07T19:06:25.261Z,91.32
2023-01-07T19:08:52.793Z,88.18
2023-01-07T19:11:20.014Z,84.00
2023-01-07T19:13:47.497Z,83.82
2023-01-07T19:16:14.886Z,94.28
2023-01-07T19:18:42.442Z,85.78
2023-01-07T19:21:11.920Z,93.07
2023-01-07T19:23:39.640Z,89.10
2023-01-07T19:26:08.958Z,86.35
2023-01-07T19:28:36.569Z,86.45
2023-01-07T19:31:07.995Z,95.57
2023-01-07T19:33:36.243Z,99.20
2023-01-07T19:36:07.767Z,91.68
2023-01-07T19:38:42.776Z,98.75
2023-01-07T19:41:17.329Z,100.65
2023-01-07T19:43:49.332Z,94.05
2023-01-07T19:46:18.485Z,90.13
2023-01-07T19:48:49.045Z,99.43
2023-01-07T19:51:16.197Z,93.60
2023-01-07T19:53:43.667Z,92.72
2023-01-07T19:56:12.630Z,94.63
2023-01-07T19:58:41.938Z,99.38
2023-01-07T20:01:12.917Z,97.10
2023-01-07T20:03:40.647Z,95.85
2023-01-07T20:06:13.382Z,103.78
2023-01-07T20:08:41.435Z,100.35
2023-01-07T20:11:09.785Z,83.45
2023-01-07T20:13:38.215Z,92.25
2023-01-07T20:16:07.655Z,89.55
2023-01-07T20:18:46.703Z,90.43
2023-01-07T20:21:15.944Z,89.30
2023-01-07T20:23:44.218Z,97.47
2023-01-07T20:26:16.938Z,93.72
2023-01-07T20:28:44.719Z,93.35
2023-01-07T20:31:14.602Z,94.82
2023-01-07T20:33:43.380Z,98.18
2023-01-07T20:36:16.118Z,98.18
2023-01-07T20:38:44.675Z,95.75
2023-01-07T20:41:20.646Z,99.63
2023-01-07T20:43:56.931Z,92.90
2023-01-07T20:46:26.598Z,103.57
2023-01-07T20:48:55.177Z,99.97
2023-01-07T20:51:22.638Z,103.78
2023-01-07T20:53:51.286Z,106.13
2023-01-07T20:56:20.712Z,109.07
2023-01-07T20:58:49.751Z,98.18
2023-01-07T21:01:19.799Z,107.20
2023-01-07T21:07:29.054Z,106.95
2023-01-07T21:09:56.713Z,111.10
2023-01-07T21:12:23.985Z,123.88
2023-01-07T21:14:51.426Z,117.13
2023-01-07T21:17:18.564Z,104.13
2023-01-07T21:19:46.269Z,106.43
2023-01-07T21:22:13.646Z,118.70
2023-01-07T21:24:41.099Z,108.40
2023-01-07T21:27:08.256Z,104.75
2023-01-07T21:29:35.751Z,103.75
2023-01-07T21:32:04.287Z,103.25
2023-01-07T21:34:31.836Z,105.07
2023-01-07T21:36:59.128Z,105.45
2023-01-07T21:39:26.885Z,102.55
2023-01-07T21:41:54.143Z,97.15
2023-01-07T21:44:21.483Z,101.82
2023-01-07T21:46:48.719Z,99.63
2023-01-07T21:49:19.019Z,98.35
2023-01-07T21:51:46.253Z,107.30
2023-01-07T21:54:13.825Z,96.18
2023-01-07T21:56:41.378Z,102.10
2023-01-07T21:59:10.029Z,104.32
2023-01-07T22:01:37.751Z,98.63
2023-01-07T22:04:05.423Z,98.55
2023-01-07T22:06:35.567Z,100.18
2023-01-07T22:09:08.251Z,101.63
2023-01-07T22:14:05.991Z,94.05
2023-01-07T22:16:33.403Z,92.22
2023-01-07T22:19:01.430Z,98.10
2023-01-07T22:21:28.752Z,91.35
2023-01-07T22:23:56.244Z,87.97
2023-01-07T22:26:23.884Z,93.28
2023-01-07T22:29:03.298Z,95.43
2023-01-07T22:31:38.040Z,93.03
2023-01-07T22:34:07.325Z,91.18
2023-01-07T22:36:34.463Z,87.63
2023-01-07T22:39:09.801Z,81.50
2023-01-07T22:41:37.731Z,100.10
2023-01-07T22:44:19.548Z,80.18
2023-01-07T22:46:50.147Z,93.90
2023-01-07T22:49:19.151Z,80.47
2023-01-07T22:51:48.939Z,93.95
2023-01-07T22:54:16.988Z,91.18
2023-01-07T22:56:44.877Z,86.65
2023-01-07T22:59:12.580Z,92.45
2023-01-07T23:01:40.139Z,81.35
2023-01-07T23:04:08.093Z,82.93
2023-01-07T23:06:35.433Z,87.35
2023-01-07T23:09:03.135Z,88.18
2023-01-07T23:11:51.063Z,83.18
2023-01-07T23:14:20.618Z,87.70
2023-01-07T23:16:48.515Z,83.55
2023-01-07T23:19:16.886Z,89.05
2023-01-07T23:21:46.505Z,90.95
2023-01-07T23:24:14.741Z,95.65
2023-01-07T23:26:42.888Z,92.60
2023-01-07T23:29:10.408Z,100.15
2023-01-07T23:31:37.932Z,101.35
2023-01-07T23:34:05.510Z,97.10
2023-01-07T23:36:33.068Z,97.60
2023-01-07T23:39:00.515Z,97.13
2023-01-07T23:41:27.708Z,90.80
2023-01-07T23:43:55.135Z,90.00
2023-01-07T23:46:22.337Z,98.15
2023-01-07T23:48:49.828Z,106.45
2023-01-07T23:51:19.275Z,103.10
2023-01-07T23:53:47.262Z,119.72
2023-01-07T23:56:17.491Z,101.72
2023-01-07T23:58:44.945Z,98.60
